עמוד ראשי
METAR-TAF:

METAR-TAF

שדות תעופה :

נמל התעופה הבינלאומי המלך חוסיין

עקבה, ירדן

קו רוחב: 29-38N, קו אורך: 035-01E, גובה: 53מטר

תצפית מזג אוויר נוכחית

הדו"ח נערך לפני 55דקות, בשעה 03:00 UTC
רוח 6קשר מכיוון צפון
טמפרטורת 32 צלסיוס
לחות 29%
לחץ 1008 hPa
ראות: 8000מטר

METAR: OJAQ 140300Z 36006KT 8000 NSC 32/12 Q1008 NOSIG

זמן: 06:55 (03:55 UTC)

תחזית

הדו"ח נערך לפני 4 שעות ו 55דקות, בשעה 23:00 UTC
תחזית בתוקף מ 14 ב 00 UTC עד 15 ב 06 UTC
רוח 12קשר מכיוון צפון
ראות: 8000מטר
הסתברות 40% :
זמנית מ -
14 ב 00 UTC עד 14 ב 09 UTC
ראות: 5000מטר
אובך,

TAF: OJAQ 132300Z 1400/1506 36012KT 8000 NSC PROB40 TEMPO 1400/1409 5000 HZ

תצפיות ותחזיות מזג אוויר לגבי יותר מ- 4,000 שדות תעופה ברחבי העולם. דוחות METAR ו- TAF.

התחנות הזמינות מסומנות בנקודות צהובות ואדומות על גבי המפה.

העבר את העכבר לנקודה הצבעונית על מנת לראות את שם התחנה.

לאחר מכן, לחץ כדי לראות את תוכן ואת תחזיות מזג האוויר.

כדי לשנות את המפה: לחץ על הכפתורים הירוקים עם הפלוס השחור כדי להתקרב; על הכפתור הירוק עם המקף כדי להתרחק; או בחיצים הירוקים למפות סמוכות.


METAR-TAF: